createdAt,value
2023-02-25T00:05:00.179Z,100.00
2023-02-25T00:10:02.725Z,100.00
2023-02-25T00:15:08.132Z,100.00
2023-02-25T00:20:13.239Z,100.00
2023-02-25T00:25:16.688Z,100.00
2023-02-25T00:30:20.823Z,100.00
2023-02-25T00:35:23.378Z,100.00
2023-02-25T00:40:25.949Z,100.00
2023-02-25T00:45:30.264Z,100.00
2023-02-25T00:50:33.262Z,100.00
2023-02-25T00:55:36.433Z,100.00
2023-02-25T01:00:51.300Z,100.00
2023-02-25T01:05:54.610Z,100.00
2023-02-25T01:10:57.490Z,100.00
2023-02-25T01:16:02.451Z,100.00
2023-02-25T01:21:06.039Z,100.00
2023-02-25T01:26:09.704Z,100.00
2023-02-25T01:31:19.141Z,100.00
2023-02-25T01:36:22.730Z,100.00
2023-02-25T01:41:27.066Z,100.00
2023-02-25T01:46:31.936Z,100.00
2023-02-25T01:51:36.346Z,100.00
2023-02-25T01:56:42.202Z,100.00
2023-02-25T02:01:46.143Z,100.00
2023-02-25T02:06:56.511Z,100.00
2023-02-25T02:12:12.354Z,100.00
2023-02-25T02:17:24.742Z,100.00
2023-02-25T02:22:34.091Z,100.00
2023-02-25T02:27:57.298Z,100.00
2023-02-25T02:33:10.064Z,100.00
2023-02-25T02:38:22.847Z,100.00
2023-02-25T02:43:38.605Z,100.00
2023-02-25T02:48:49.724Z,100.00
2023-02-25T02:53:57.045Z,100.00
2023-02-25T02:59:05.298Z,100.00
2023-02-25T03:04:24.551Z,100.00
2023-02-25T03:09:31.584Z,100.00
2023-02-25T03:14:34.945Z,100.00
2023-02-25T03:19:42.975Z,100.00
2023-02-25T03:24:51.049Z,100.00
2023-02-25T03:29:59.752Z,100.00
2023-02-25T03:35:08.593Z,100.00
2023-02-25T03:40:15.218Z,100.00
2023-02-25T03:45:21.263Z,100.00
2023-02-25T03:50:31.994Z,100.00
2023-02-25T03:55:38.752Z,100.00
2023-02-25T04:00:45.268Z,100.00
2023-02-25T04:05:49.503Z,100.00
2023-02-25T04:10:52.545Z,100.00
2023-02-25T04:15:58.286Z,100.00
2023-02-25T04:21:02.703Z,100.00
2023-02-25T04:26:05.850Z,100.00
2023-02-25T04:31:08.803Z,100.00
2023-02-25T04:36:26.611Z,100.00
2023-02-25T04:41:34.021Z,100.00
2023-02-25T04:46:39.588Z,100.00
2023-02-25T04:51:43.851Z,100.00
2023-02-25T04:57:15.224Z,100.00
2023-02-25T05:02:19.286Z,100.00
2023-02-25T05:07:23.255Z,100.00
2023-02-25T05:12:26.041Z,100.00
2023-02-25T05:17:28.905Z,100.00
2023-02-25T05:22:33.228Z,100.00
2023-02-25T05:27:36.482Z,100.00
2023-02-25T05:32:39.751Z,100.00
2023-02-25T05:37:44.038Z,100.00
2023-02-25T05:42:49.576Z,100.00
2023-02-25T05:48:08.218Z,100.00
2023-02-25T05:53:12.449Z,100.00
2023-02-25T05:58:17.905Z,100.00
2023-02-25T06:03:20.919Z,100.00
2023-02-25T06:08:25.114Z,100.00
2023-02-25T06:13:27.811Z,100.00
2023-02-25T06:18:36.434Z,100.00
2023-02-25T06:23:53.775Z,100.00
2023-02-25T06:29:47.541Z,100.00
2023-02-25T06:34:52.472Z,100.00
2023-02-25T06:39:56.695Z,100.00
2023-02-25T06:44:59.408Z,100.00
2023-02-25T06:50:02.802Z,100.00
2023-02-25T06:55:10.629Z,100.00
2023-02-25T07:00:24.717Z,100.00
2023-02-25T07:05:29.984Z,100.00
2023-02-25T07:10:36.083Z,100.00
2023-02-25T07:15:39.606Z,100.00
2023-02-25T07:20:42.369Z,100.00
2023-02-25T07:25:51.224Z,100.00
2023-02-25T07:30:54.199Z,100.00
2023-02-25T07:35:57.037Z,100.00
2023-02-25T07:41:06.145Z,100.00
2023-02-25T07:46:09.681Z,100.00
2023-02-25T07:51:18.580Z,100.00
2023-02-25T07:56:25.359Z,100.00
2023-02-25T08:01:31.709Z,100.00
2023-02-25T08:06:37.510Z,100.00
2023-02-25T08:11:44.737Z,100.00
2023-02-25T08:16:54.186Z,100.00
2023-02-25T08:22:06.500Z,100.00
2023-02-25T08:27:11.559Z,100.00
2023-02-25T08:32:40.435Z,100.00
2023-02-25T08:37:47.300Z,100.00
2023-02-25T08:42:51.463Z,100.00
2023-02-25T08:47:55.754Z,100.00
2023-02-25T08:52:59.880Z,100.00
2023-02-25T08:58:13.412Z,100.00
2023-02-25T09:03:16.708Z,100.00
2023-02-25T09:08:24.647Z,100.00
2023-02-25T09:14:00.305Z,100.00
2023-02-25T09:19:48.669Z,100.00
2023-02-25T09:25:42.167Z,100.00
2023-02-25T09:37:41.629Z,100.00
2023-02-25T09:43:41.115Z,100.00
2023-02-25T09:49:47.019Z,100.00
2023-02-25T10:02:46.769Z,100.00
2023-02-25T10:08:12.124Z,100.00
2023-02-25T10:13:28.385Z,100.00
2023-02-25T10:19:24.145Z,100.00
2023-02-25T10:25:35.317Z,100.00
2023-02-25T10:30:53.018Z,100.00
2023-02-25T10:36:40.204Z,100.00
2023-02-25T10:41:50.852Z,100.00
2023-02-25T10:47:03.314Z,100.00
2023-02-25T10:52:15.838Z,100.00
2023-02-25T10:57:41.974Z,100.00
2023-02-25T11:03:09.216Z,100.00
2023-02-25T11:08:28.764Z,100.00
2023-02-25T11:13:37.067Z,100.00
2023-02-25T11:18:41.985Z,100.00
2023-02-25T11:23:49.975Z,100.00
2023-02-25T11:28:56.053Z,100.00
2023-02-25T11:34:05.446Z,100.00
2023-02-25T11:39:17.695Z,100.00
2023-02-25T11:44:31.337Z,100.00
2023-02-25T11:50:01.394Z,100.00
2023-02-25T11:55:16.693Z,100.00
2023-02-25T12:00:26.568Z,100.00
2023-02-25T12:05:52.097Z,94.77
2023-02-25T12:11:18.238Z,92.75
2023-02-25T12:17:10.751Z,94.88
2023-02-25T12:29:18.825Z,89.01
2023-02-25T12:34:46.298Z,87.56
2023-02-25T12:40:04.735Z,82.65
2023-02-25T12:45:30.778Z,82.29
2023-02-25T12:50:49.725Z,83.71
2023-02-25T12:56:30.648Z,77.27
2023-02-25T13:02:06.116Z,77.91
2023-02-25T13:07:45.586Z,76.71
2023-02-25T13:13:01.813Z,78.56
2023-02-25T13:18:20.764Z,73.98
2023-02-25T13:23:58.063Z,69.92
2023-02-25T13:29:21.951Z,66.52
2023-02-25T13:34:35.887Z,66.92
2023-02-25T13:40:30.159Z,65.75
2023-02-25T13:46:22.329Z,70.51
2023-02-25T13:51:47.312Z,67.78
2023-02-25T13:57:06.064Z,70.30
2023-02-25T14:02:39.448Z,64.33
2023-02-25T14:08:12.267Z,68.62
2023-02-25T14:14:04.833Z,62.82
2023-02-25T14:19:27.321Z,64.59
2023-02-25T14:30:16.709Z,64.71
2023-02-25T14:35:43.142Z,65.58
2023-02-25T14:46:35.052Z,65.37
2023-02-25T14:52:12.799Z,66.05
2023-02-25T14:58:06.210Z,64.88
2023-02-25T15:04:09.360Z,65.04
2023-02-25T15:10:04.438Z,62.87
2023-02-25T15:16:10.397Z,62.53
2023-02-25T15:21:41.434Z,61.54
2023-02-25T15:26:48.451Z,62.73
2023-02-25T15:32:12.562Z,66.93
2023-02-25T15:37:35.078Z,63.42
2023-02-25T15:42:53.041Z,66.73
2023-02-25T15:48:31.870Z,67.17
2023-02-25T15:53:48.928Z,70.15
2023-02-25T15:58:57.648Z,74.37
2023-02-25T16:04:01.596Z,74.13
2023-02-25T16:09:13.714Z,71.84
2023-02-25T16:14:25.736Z,69.42
2023-02-25T16:19:40.588Z,70.87
2023-02-25T16:24:55.170Z,70.41
2023-02-25T16:30:08.394Z,71.44
2023-02-25T16:35:25.143Z,73.23
2023-02-25T16:40:31.566Z,74.19
2023-02-25T16:45:47.240Z,75.66
2023-02-25T16:50:51.211Z,72.46
2023-02-25T16:56:02.034Z,71.18
2023-02-25T17:01:07.634Z,70.23
2023-02-25T17:06:17.867Z,68.79
2023-02-25T17:11:23.568Z,69.86
2023-02-25T17:16:31.680Z,70.82
2023-02-25T17:21:45.229Z,69.90
2023-02-25T17:26:53.438Z,72.96
2023-02-25T17:31:58.444Z,72.99
2023-02-25T17:37:05.714Z,72.89
2023-02-25T17:42:28.285Z,74.40
2023-02-25T17:47:34.415Z,74.87
2023-02-25T17:52:37.758Z,76.65
2023-02-25T17:57:43.267Z,76.64
2023-02-25T18:02:47.698Z,78.22
2023-02-25T18:08:04.496Z,77.58
2023-02-25T18:13:17.586Z,79.09
2023-02-25T18:18:23.654Z,78.07
2023-02-25T18:23:28.611Z,79.32
2023-02-25T18:28:31.299Z,79.76
2023-02-25T18:33:35.455Z,80.48
2023-02-25T18:38:38.500Z,81.06
2023-02-25T18:43:42.792Z,81.66
2023-02-25T18:48:46.953Z,82.76
2023-02-25T18:53:49.659Z,82.95
2023-02-25T18:58:54.732Z,83.91
2023-02-25T19:04:00.070Z,84.70
2023-02-25T19:09:04.062Z,85.62
2023-02-25T19:14:09.127Z,86.95
2023-02-25T19:19:14.140Z,88.68
2023-02-25T19:24:16.955Z,88.23
2023-02-25T19:29:22.944Z,88.36
2023-02-25T19:34:27.359Z,89.44
2023-02-25T19:39:30.224Z,90.72
2023-02-25T19:44:33.440Z,90.60
2023-02-25T19:49:37.894Z,89.99
2023-02-25T19:54:41.083Z,91.46
2023-02-25T19:59:43.942Z,91.92
2023-02-25T20:04:48.210Z,92.50
2023-02-25T20:09:51.254Z,91.60
2023-02-25T20:14:56.401Z,92.29
2023-02-25T20:20:00.502Z,92.17
2023-02-25T20:25:03.441Z,92.73
2023-02-25T20:30:08.038Z,93.72
2023-02-25T20:35:16.457Z,92.88
2023-02-25T20:40:20.019Z,93.61
2023-02-25T20:45:23.390Z,94.50
2023-02-25T20:50:30.074Z,95.75
2023-02-25T20:55:32.947Z,97.74
2023-02-25T21:00:41.572Z,98.53
2023-02-25T21:05:49.421Z,98.45
2023-02-25T21:10:55.157Z,99.52
2023-02-25T21:15:59.767Z,100.00
2023-02-25T21:21:08.560Z,100.00
2023-02-25T21:26:13.062Z,100.00
2023-02-25T21:31:17.245Z,100.00
2023-02-25T21:36:23.411Z,100.00
2023-02-25T21:41:44.265Z,100.00
2023-02-25T21:46:48.188Z,100.00
2023-02-25T21:51:54.945Z,100.00
2023-02-25T21:56:57.669Z,100.00
2023-02-25T22:02:23.540Z,100.00
2023-02-25T22:07:32.269Z,100.00
2023-02-25T22:12:34.974Z,100.00
2023-02-25T22:17:38.808Z,100.00
2023-02-25T22:22:42.977Z,100.00
2023-02-25T22:27:47.472Z,100.00
2023-02-25T22:32:50.920Z,100.00
2023-02-25T22:37:55.055Z,100.00
2023-02-25T22:42:57.816Z,100.00
2023-02-25T22:48:00.724Z,100.00
2023-02-25T22:53:08.218Z,100.00
2023-02-25T22:58:13.471Z,100.00
2023-02-25T23:03:16.388Z,100.00
2023-02-25T23:08:21.134Z,100.00
2023-02-25T23:13:24.020Z,100.00
2023-02-25T23:18:28.116Z,100.00
2023-02-25T23:23:38.374Z,100.00
2023-02-25T23:28:41.846Z,100.00
2023-02-25T23:33:47.543Z,100.00
2023-02-25T23:38:56.276Z,100.00
2023-02-25T23:44:02.479Z,100.00
2023-02-25T23:49:07.884Z,100.00
2023-02-25T23:54:16.746Z,100.00
2023-02-25T23:59:19.874Z,100.00
